createdAt,value
2023-04-16T00:01:57.173Z,52.42
2023-04-16T00:04:24.036Z,52.27
2023-04-16T00:06:50.882Z,52.46
2023-04-16T00:09:17.564Z,52.42
2023-04-16T00:11:44.209Z,52.42
2023-04-16T00:14:10.861Z,52.48
2023-04-16T00:16:38.608Z,52.60
2023-04-16T00:19:05.321Z,52.51
2023-04-16T00:21:32.163Z,52.60
2023-04-16T00:23:58.874Z,52.80
2023-04-16T00:26:25.605Z,53.45
2023-04-16T00:28:52.504Z,52.92
2023-04-16T00:31:27.002Z,52.76
2023-04-16T00:33:53.705Z,53.25
2023-04-16T00:36:20.400Z,53.34
2023-04-16T00:38:47.257Z,53.27
2023-04-16T00:41:14.281Z,53.57
2023-04-16T00:43:41.822Z,53.35
2023-04-16T00:46:08.588Z,53.23
2023-04-16T00:48:37.910Z,53.41
2023-04-16T00:51:09.112Z,53.39
2023-04-16T00:53:36.438Z,53.44
2023-04-16T00:56:06.846Z,53.30
2023-04-16T00:58:35.693Z,53.82
2023-04-16T01:01:02.531Z,53.63
2023-04-16T01:03:38.025Z,53.95
2023-04-16T01:06:06.316Z,54.33
2023-04-16T01:08:33.103Z,54.46
2023-04-16T01:10:59.783Z,54.65
2023-04-16T01:13:26.544Z,54.80
2023-04-16T01:15:53.309Z,54.93
2023-04-16T01:18:21.949Z,54.72
2023-04-16T01:20:50.041Z,55.32
2023-04-16T01:23:18.669Z,54.76
2023-04-16T01:25:46.365Z,55.12
2023-04-16T01:28:13.439Z,55.32
2023-04-16T01:30:40.277Z,55.01
2023-04-16T01:33:14.534Z,55.13
2023-04-16T01:35:42.052Z,55.24
2023-04-16T01:38:09.635Z,55.30
2023-04-16T01:40:38.244Z,55.22
2023-04-16T01:43:05.274Z,55.20
2023-04-16T01:45:33.660Z,55.38
2023-04-16T01:48:00.923Z,55.22
2023-04-16T01:50:28.351Z,55.23
2023-04-16T01:52:54.939Z,55.37
2023-04-16T01:55:21.937Z,55.45
2023-04-16T01:57:48.689Z,55.46
2023-04-16T02:00:15.708Z,54.89
2023-04-16T02:02:46.238Z,55.18
2023-04-16T02:05:16.748Z,55.56
2023-04-16T02:07:43.363Z,55.44
2023-04-16T02:10:10.451Z,55.62
2023-04-16T02:12:39.080Z,55.41
2023-04-16T02:15:06.640Z,55.48
2023-04-16T02:17:33.377Z,55.78
2023-04-16T02:20:10.988Z,55.50
2023-04-16T02:22:47.537Z,55.87
2023-04-16T02:25:16.652Z,55.70
2023-04-16T02:27:43.651Z,55.49
2023-04-16T02:30:31.308Z,55.58
2023-04-16T02:32:58.059Z,55.61
2023-04-16T02:35:24.754Z,55.41
2023-04-16T02:37:52.392Z,55.75
2023-04-16T02:40:19.568Z,55.55
2023-04-16T02:42:46.300Z,55.37
2023-04-16T02:45:13.161Z,55.44
2023-04-16T02:47:39.855Z,55.41
2023-04-16T02:50:07.658Z,55.74
2023-04-16T02:52:34.312Z,56.16
2023-04-16T02:55:01.231Z,55.90
2023-04-16T02:57:27.843Z,56.14
2023-04-16T02:59:54.398Z,55.98
2023-04-16T03:02:21.386Z,56.08
2023-04-16T03:04:48.306Z,55.85
2023-04-16T03:07:15.175Z,56.14
2023-04-16T03:09:41.930Z,56.34
2023-04-16T03:12:08.667Z,56.20
2023-04-16T03:14:35.407Z,56.37
2023-04-16T03:17:02.474Z,56.58
2023-04-16T03:19:29.165Z,56.53
2023-04-16T03:21:56.351Z,56.50
2023-04-16T03:24:23.159Z,56.13
2023-04-16T03:26:49.746Z,56.20
2023-04-16T03:29:16.994Z,56.44
2023-04-16T03:31:44.075Z,56.34
2023-04-16T03:34:10.839Z,56.27
2023-04-16T03:36:39.076Z,56.66
2023-04-16T03:39:05.818Z,56.61
2023-04-16T03:41:33.228Z,56.74
2023-04-16T03:44:00.631Z,56.53
2023-04-16T03:46:27.369Z,56.59
2023-04-16T03:48:54.562Z,56.46
2023-04-16T03:51:21.552Z,56.63
2023-04-16T03:53:48.164Z,57.00
2023-04-16T03:56:14.822Z,57.13
2023-04-16T03:58:41.334Z,56.88
2023-04-16T04:01:08.272Z,57.63
2023-04-16T04:03:35.768Z,57.24
2023-04-16T04:06:08.284Z,57.09
2023-04-16T04:08:35.290Z,57.10
2023-04-16T04:11:02.608Z,57.10
2023-04-16T04:13:30.039Z,57.22
2023-04-16T04:15:57.860Z,57.37
2023-04-16T04:18:24.433Z,57.53
2023-04-16T04:20:52.076Z,57.75
2023-04-16T04:23:20.330Z,57.68
2023-04-16T04:25:47.334Z,57.86
2023-04-16T04:28:14.039Z,57.97
2023-04-16T04:30:40.734Z,58.02
2023-04-16T04:33:07.447Z,57.97
2023-04-16T04:35:34.306Z,58.41
2023-04-16T04:38:03.734Z,58.45
2023-04-16T04:40:30.993Z,58.59
2023-04-16T04:42:57.685Z,58.45
2023-04-16T04:45:25.754Z,58.71
2023-04-16T04:47:53.749Z,58.82
2023-04-16T04:50:22.128Z,58.73
2023-04-16T04:52:48.730Z,58.77
2023-04-16T04:55:16.188Z,59.18
2023-04-16T04:57:43.004Z,58.80
2023-04-16T05:00:10.448Z,59.03
2023-04-16T05:02:47.589Z,59.17
2023-04-16T05:05:14.420Z,59.21
2023-04-16T05:07:41.497Z,59.47
2023-04-16T05:10:09.096Z,59.36
2023-04-16T05:12:35.887Z,59.36
2023-04-16T05:15:02.567Z,59.36
2023-04-16T05:17:29.303Z,59.53
2023-04-16T05:19:56.040Z,59.51
2023-04-16T05:22:22.625Z,59.84
2023-04-16T05:24:49.268Z,59.97
2023-04-16T05:27:16.280Z,59.71
2023-04-16T05:29:43.005Z,60.37
2023-04-16T05:32:09.694Z,60.04
2023-04-16T05:34:36.322Z,60.00
2023-04-16T05:37:03.013Z,60.11
2023-04-16T05:39:29.560Z,59.75
2023-04-16T05:41:56.209Z,60.13
2023-04-16T05:44:22.923Z,60.06
2023-04-16T05:46:49.407Z,60.14
2023-04-16T05:49:18.851Z,60.42
2023-04-16T05:51:45.832Z,60.06
2023-04-16T05:54:12.473Z,59.94
2023-04-16T05:56:38.994Z,59.61
2023-04-16T05:59:05.860Z,59.46
2023-04-16T06:01:34.309Z,59.26
2023-04-16T06:04:01.349Z,59.45
2023-04-16T06:06:28.106Z,59.06
2023-04-16T06:08:54.671Z,59.39
2023-04-16T06:11:21.318Z,60.17
2023-04-16T06:13:47.958Z,60.37
2023-04-16T06:16:14.844Z,60.30
2023-04-16T06:18:41.794Z,60.75
2023-04-16T06:21:08.392Z,60.51
2023-04-16T06:23:34.929Z,60.37
2023-04-16T06:26:01.696Z,60.38
2023-04-16T06:28:28.330Z,60.14
2023-04-16T06:30:55.120Z,60.30
2023-04-16T06:33:21.747Z,60.52
2023-04-16T06:35:48.369Z,60.12
2023-04-16T06:38:15.269Z,59.92
2023-04-16T06:40:41.983Z,60.27
2023-04-16T06:43:08.635Z,59.77
2023-04-16T06:45:35.312Z,59.73
2023-04-16T06:48:03.546Z,59.60
2023-04-16T06:50:30.519Z,59.55
2023-04-16T06:52:57.376Z,59.04
2023-04-16T06:55:23.988Z,58.76
2023-04-16T06:57:50.686Z,58.25
2023-04-16T07:00:17.560Z,57.88
2023-04-16T07:02:44.324Z,57.27
2023-04-16T07:05:11.538Z,57.80
2023-04-16T07:07:38.145Z,57.78
2023-04-16T07:10:05.975Z,57.20
2023-04-16T07:12:33.108Z,56.55
2023-04-16T07:14:59.835Z,55.93
2023-04-16T07:17:26.804Z,55.40
2023-04-16T07:19:53.459Z,54.95
2023-04-16T07:22:21.956Z,55.01
2023-04-16T07:24:48.682Z,54.39
2023-04-16T07:27:15.348Z,53.47
2023-04-16T07:29:42.028Z,54.44
2023-04-16T07:32:08.834Z,53.58
2023-04-16T07:34:35.814Z,53.32
2023-04-16T07:37:02.482Z,53.15
2023-04-16T07:39:29.147Z,52.77
2023-04-16T07:41:55.969Z,52.42
2023-04-16T07:44:22.688Z,52.61
2023-04-16T07:46:49.340Z,52.40
2023-04-16T07:49:16.045Z,52.04
2023-04-16T07:51:42.760Z,51.61
2023-04-16T07:54:10.803Z,51.07
2023-04-16T07:56:37.424Z,51.42
2023-04-16T07:59:18.440Z,51.34
2023-04-16T08:01:49.912Z,50.66
2023-04-16T08:04:23.160Z,50.50
2023-04-16T08:06:54.565Z,51.40
2023-04-16T08:09:23.375Z,51.48
2023-04-16T08:11:50.131Z,51.31
2023-04-16T08:14:17.531Z,50.85
2023-04-16T08:16:44.530Z,51.04
2023-04-16T08:19:11.610Z,50.61
2023-04-16T08:21:38.976Z,49.20
2023-04-16T08:24:05.894Z,49.12
2023-04-16T08:26:32.610Z,48.88
2023-04-16T08:28:59.476Z,46.77
2023-04-16T08:31:26.367Z,45.86
2023-04-16T08:33:53.142Z,46.04
2023-04-16T08:36:19.880Z,45.26
2023-04-16T08:38:47.178Z,44.98
2023-04-16T08:41:14.114Z,45.04
2023-04-16T08:43:45.061Z,45.36
2023-04-16T08:46:12.875Z,45.31
2023-04-16T08:48:42.889Z,44.96
2023-04-16T08:51:11.217Z,45.12
2023-04-16T08:54:12.180Z,45.20
2023-04-16T08:56:42.841Z,43.84
2023-04-16T08:59:10.121Z,43.78
2023-04-16T09:01:38.586Z,43.02
2023-04-16T09:04:07.403Z,43.35
2023-04-16T09:06:35.249Z,42.33
2023-04-16T09:09:04.866Z,42.57
2023-04-16T09:11:32.472Z,42.47
2023-04-16T09:14:00.634Z,41.29
2023-04-16T09:16:30.808Z,41.82
2023-04-16T09:18:57.685Z,41.33
2023-04-16T09:21:25.134Z,41.37
2023-04-16T09:23:53.517Z,41.41
2023-04-16T09:26:20.965Z,41.13
2023-04-16T09:28:50.868Z,41.02
2023-04-16T09:31:19.090Z,40.67
2023-04-16T09:34:04.947Z,40.33
2023-04-16T09:36:32.782Z,40.24
2023-04-16T09:39:00.461Z,40.86
2023-04-16T09:41:32.612Z,40.84
2023-04-16T09:44:02.263Z,40.43
2023-04-16T09:46:35.139Z,39.93
2023-04-16T09:49:15.118Z,40.10
2023-04-16T09:51:42.829Z,40.62
2023-04-16T09:54:09.974Z,39.97
2023-04-16T09:56:44.123Z,39.94
2023-04-16T09:59:21.158Z,39.32
2023-04-16T10:01:53.773Z,39.25
2023-04-16T10:05:06.849Z,39.48
2023-04-16T10:07:35.991Z,38.64
2023-04-16T10:10:04.144Z,39.20
2023-04-16T10:12:32.908Z,37.62
2023-04-16T10:14:59.719Z,38.31
2023-04-16T10:17:30.090Z,37.63
2023-04-16T10:19:58.564Z,37.47
2023-04-16T10:22:26.425Z,37.36
2023-04-16T10:24:54.828Z,36.81
2023-04-16T10:27:21.805Z,36.76
2023-04-16T10:29:49.668Z,36.58
2023-04-16T10:32:18.447Z,36.85
2023-04-16T10:34:46.190Z,36.94
2023-04-16T10:37:12.902Z,36.72
2023-04-16T10:39:39.635Z,37.27
2023-04-16T10:42:09.368Z,36.57
2023-04-16T10:44:36.684Z,37.75
2023-04-16T10:47:09.705Z,36.29
2023-04-16T10:49:36.360Z,36.33
2023-04-16T10:52:20.348Z,36.10
2023-04-16T10:54:50.289Z,36.58
2023-04-16T10:57:19.784Z,36.78
2023-04-16T10:59:49.270Z,35.85
2023-04-16T11:02:19.735Z,35.81
2023-04-16T11:04:48.517Z,34.69
2023-04-16T11:07:31.382Z,35.02
2023-04-16T11:10:05.380Z,34.46
2023-04-16T11:12:42.102Z,35.17
2023-04-16T11:15:14.056Z,34.82
2023-04-16T11:17:48.703Z,34.88
2023-04-16T11:20:19.928Z,34.53
2023-04-16T11:22:48.364Z,34.15
2023-04-16T11:25:23.776Z,34.64
2023-04-16T11:27:52.136Z,34.51
2023-04-16T11:30:28.022Z,33.67
2023-04-16T11:32:54.958Z,34.33
2023-04-16T11:35:22.128Z,33.40
2023-04-16T11:40:35.197Z,34.34
2023-04-16T11:43:04.264Z,33.47
2023-04-16T11:45:31.531Z,32.82
2023-04-16T11:47:58.396Z,32.42
2023-04-16T11:50:29.161Z,32.84
2023-04-16T11:53:04.123Z,32.86
2023-04-16T11:55:32.356Z,32.51
2023-04-16T11:58:12.167Z,32.87
2023-04-16T12:00:39.036Z,33.67
2023-04-16T12:03:05.891Z,33.15
2023-04-16T12:05:40.900Z,32.76
2023-04-16T12:08:10.649Z,33.02
2023-04-16T12:10:54.575Z,33.41
2023-04-16T12:13:21.437Z,33.86
2023-04-16T12:15:51.764Z,33.24
2023-04-16T12:18:20.849Z,33.16
2023-04-16T12:20:47.679Z,32.52
2023-04-16T12:23:24.393Z,32.10
2023-04-16T12:25:52.061Z,32.08
2023-04-16T12:28:33.519Z,31.50
2023-04-16T12:31:01.691Z,31.76
2023-04-16T12:33:29.386Z,31.66
2023-04-16T12:35:56.391Z,32.00
2023-04-16T12:38:24.604Z,31.66
2023-04-16T12:40:52.160Z,31.90
2023-04-16T12:43:19.894Z,32.15
2023-04-16T12:45:46.866Z,31.87
2023-04-16T12:48:13.528Z,31.57
2023-04-16T12:50:40.269Z,31.34
2023-04-16T12:53:07.058Z,31.39
2023-04-16T12:55:33.949Z,31.89
2023-04-16T12:58:01.073Z,32.29
2023-04-16T13:00:27.969Z,31.80
2023-04-16T13:02:54.893Z,31.68
2023-04-16T13:05:21.627Z,31.26
2023-04-16T13:07:48.365Z,30.98
2023-04-16T13:10:15.071Z,32.02
2023-04-16T13:12:41.681Z,31.13
2023-04-16T13:15:09.362Z,31.33
2023-04-16T13:17:36.138Z,31.40
2023-04-16T13:20:03.196Z,31.67
2023-04-16T13:22:29.984Z,32.44
2023-04-16T13:24:57.102Z,32.88
2023-04-16T13:27:23.855Z,32.61
2023-04-16T13:29:50.614Z,32.22
2023-04-16T13:32:18.995Z,31.94
2023-04-16T13:34:45.748Z,32.23
2023-04-16T13:37:12.431Z,32.71
2023-04-16T13:39:39.181Z,32.46
2023-04-16T13:42:05.981Z,32.66
2023-04-16T13:44:32.606Z,32.61
2023-04-16T13:46:59.425Z,33.04
2023-04-16T13:49:26.387Z,33.23
2023-04-16T13:51:53.149Z,33.45
2023-04-16T13:54:19.815Z,33.50
2023-04-16T13:56:46.571Z,33.39
2023-04-16T13:59:15.778Z,33.53
2023-04-16T14:01:42.762Z,33.56
2023-04-16T14:04:09.522Z,33.56
2023-04-16T14:06:36.440Z,34.07
2023-04-16T14:09:04.300Z,33.96
2023-04-16T14:11:31.560Z,34.28
2023-04-16T14:13:58.534Z,34.62
2023-04-16T14:16:26.500Z,34.55
2023-04-16T14:18:53.469Z,34.65
2023-04-16T14:21:20.120Z,34.90
2023-04-16T14:23:46.883Z,34.97
2023-04-16T14:26:13.739Z,35.24
2023-04-16T14:28:41.497Z,35.08
2023-04-16T14:31:08.190Z,35.57
2023-04-16T14:33:35.048Z,35.67
2023-04-16T14:36:03.159Z,35.55
2023-04-16T14:38:31.447Z,35.98
2023-04-16T14:40:58.234Z,35.86
2023-04-16T14:43:25.017Z,36.06
2023-04-16T14:45:52.914Z,36.13
2023-04-16T14:48:19.882Z,36.11
2023-04-16T14:50:46.813Z,36.22
2023-04-16T14:53:13.884Z,36.34
2023-04-16T14:55:40.582Z,36.20
2023-04-16T14:58:07.341Z,36.50
2023-04-16T15:00:37.085Z,36.24
2023-04-16T15:03:04.510Z,36.04
2023-04-16T15:05:31.917Z,36.15
2023-04-16T15:07:58.633Z,36.29
2023-04-16T15:10:26.532Z,36.44
2023-04-16T15:12:53.230Z,36.81
2023-04-16T15:15:19.944Z,36.94
2023-04-16T15:17:47.757Z,37.28
2023-04-16T15:20:15.006Z,37.44
2023-04-16T15:22:41.816Z,37.57
2023-04-16T15:25:08.926Z,37.87
2023-04-16T15:27:36.618Z,37.80
2023-04-16T15:30:03.644Z,38.02
2023-04-16T15:32:31.247Z,38.07
2023-04-16T15:34:58.001Z,38.06
2023-04-16T15:37:24.662Z,37.74
2023-04-16T15:39:51.301Z,37.52
2023-04-16T15:42:17.969Z,37.83
2023-04-16T15:44:44.728Z,37.66
2023-04-16T15:47:11.452Z,37.49
2023-04-16T15:49:38.263Z,37.86
2023-04-16T15:52:04.984Z,38.05
2023-04-16T15:54:32.224Z,38.16
2023-04-16T15:56:59.136Z,38.22
2023-04-16T15:59:26.854Z,38.38
2023-04-16T16:01:53.849Z,38.65
2023-04-16T16:04:23.131Z,38.95
2023-04-16T16:06:50.439Z,38.87
2023-04-16T16:09:17.568Z,39.06
2023-04-16T16:11:44.322Z,39.50
2023-04-16T16:14:10.976Z,39.60
2023-04-16T16:16:37.927Z,39.71
2023-04-16T16:19:04.793Z,40.18
2023-04-16T16:21:32.695Z,41.07
2023-04-16T16:23:59.527Z,42.04
2023-04-16T16:26:26.187Z,42.79
2023-04-16T16:28:52.869Z,43.96
2023-04-16T16:31:19.653Z,43.96
2023-04-16T16:33:46.369Z,44.16
2023-04-16T16:36:13.103Z,43.92
2023-04-16T16:38:42.905Z,44.19
2023-04-16T16:41:09.621Z,43.81
2023-04-16T16:43:38.994Z,44.46
2023-04-16T16:46:07.640Z,43.60
2023-04-16T16:48:34.379Z,42.96
2023-04-16T16:51:01.091Z,42.53
2023-04-16T16:53:27.730Z,42.56
2023-04-16T16:55:54.375Z,42.52
2023-04-16T16:58:21.096Z,42.50
2023-04-16T17:00:47.796Z,42.69
2023-04-16T17:03:14.690Z,42.80
2023-04-16T17:05:41.597Z,43.47
2023-04-16T17:08:08.242Z,44.45
2023-04-16T17:10:35.940Z,44.62
2023-04-16T17:13:02.636Z,45.53
2023-04-16T17:15:29.344Z,45.77
2023-04-16T17:17:56.752Z,46.09
2023-04-16T17:20:23.433Z,46.28
2023-04-16T17:22:51.209Z,46.52
2023-04-16T17:25:17.957Z,46.39
2023-04-16T17:27:44.651Z,46.23
2023-04-16T17:30:11.533Z,46.91
2023-04-16T17:32:38.214Z,47.30
2023-04-16T17:35:07.037Z,47.72
2023-04-16T17:37:34.348Z,48.11
2023-04-16T17:40:01.277Z,47.72
2023-04-16T17:42:27.929Z,47.64
2023-04-16T17:44:54.568Z,47.82
2023-04-16T17:47:21.317Z,47.37
2023-04-16T17:49:48.003Z,47.52
2023-04-16T17:52:14.781Z,47.82
2023-04-16T17:54:42.209Z,47.95
2023-04-16T17:57:08.922Z,47.77
2023-04-16T17:59:35.960Z,48.04
2023-04-16T18:02:02.785Z,47.69
2023-04-16T18:04:29.768Z,47.74
2023-04-16T18:06:56.517Z,47.68
2023-04-16T18:09:23.155Z,47.55
2023-04-16T18:11:49.803Z,47.52
2023-04-16T18:14:19.803Z,47.22
2023-04-16T18:16:48.290Z,47.11
2023-04-16T18:19:18.591Z,46.79
2023-04-16T18:21:45.243Z,47.02
2023-04-16T18:24:12.246Z,46.93
2023-04-16T18:26:40.919Z,47.00
2023-04-16T18:29:08.168Z,47.09
2023-04-16T18:31:35.974Z,47.35
2023-04-16T18:34:02.944Z,47.27
2023-04-16T18:36:29.829Z,48.35
2023-04-16T18:39:02.241Z,48.96
2023-04-16T18:41:30.980Z,49.06
2023-04-16T18:43:57.784Z,49.91
2023-04-16T18:46:25.438Z,50.46
2023-04-16T18:48:52.324Z,50.80
2023-04-16T18:51:18.992Z,50.79
2023-04-16T18:53:45.933Z,50.85
2023-04-16T18:56:12.729Z,51.65
2023-04-16T18:58:39.539Z,51.78
2023-04-16T19:01:11.401Z,52.02
2023-04-16T19:03:38.932Z,52.15
2023-04-16T19:06:06.450Z,52.46
2023-04-16T19:08:33.375Z,52.89
2023-04-16T19:11:00.238Z,52.81
2023-04-16T19:13:27.014Z,53.10
2023-04-16T19:16:02.157Z,53.05
2023-04-16T19:18:29.219Z,53.22
2023-04-16T19:21:00.752Z,53.80
2023-04-16T19:23:27.941Z,53.67
2023-04-16T19:25:57.053Z,53.99
2023-04-16T19:28:24.762Z,54.35
2023-04-16T19:30:52.300Z,54.11
2023-04-16T19:33:19.707Z,54.57
2023-04-16T19:35:47.464Z,54.87
2023-04-16T19:38:14.518Z,54.97
2023-04-16T19:40:45.001Z,54.77
2023-04-16T19:43:12.007Z,54.43
2023-04-16T19:45:46.532Z,54.94
2023-04-16T19:48:13.798Z,55.07
2023-04-16T19:50:41.810Z,55.40
2023-04-16T19:53:09.162Z,55.86
2023-04-16T19:55:36.628Z,56.19
2023-04-16T19:58:06.522Z,56.47
2023-04-16T20:00:35.956Z,56.55
2023-04-16T20:03:03.190Z,56.09
2023-04-16T20:05:30.175Z,56.30
2023-04-16T20:07:57.098Z,56.51
2023-04-16T20:10:24.153Z,57.01
2023-04-16T20:12:51.611Z,56.92
2023-04-16T20:15:19.016Z,57.54
2023-04-16T20:17:45.983Z,57.45
2023-04-16T20:20:15.622Z,56.97
2023-04-16T20:22:43.241Z,56.89
2023-04-16T20:25:10.382Z,56.83
2023-04-16T20:27:37.118Z,57.02
2023-04-16T20:30:05.500Z,57.00
2023-04-16T20:32:32.413Z,57.04
2023-04-16T20:34:59.850Z,57.20
2023-04-16T20:37:28.863Z,57.12
2023-04-16T20:39:56.312Z,57.26
2023-04-16T20:42:26.469Z,57.48
2023-04-16T20:44:56.726Z,57.26
2023-04-16T20:47:23.880Z,57.42
2023-04-16T20:49:50.702Z,57.69
2023-04-16T20:52:17.487Z,57.80
2023-04-16T20:54:44.484Z,57.92
2023-04-16T20:57:11.216Z,57.91
2023-04-16T20:59:37.861Z,57.63
2023-04-16T21:02:04.758Z,57.82
2023-04-16T21:04:32.000Z,58.23
2023-04-16T21:07:03.251Z,58.43
2023-04-16T21:09:30.962Z,58.58
2023-04-16T21:11:57.811Z,58.64
2023-04-16T21:14:24.519Z,58.45
2023-04-16T21:16:51.350Z,58.35
2023-04-16T21:19:18.109Z,58.97
2023-04-16T21:21:45.014Z,58.68
2023-04-16T21:24:11.730Z,58.88
2023-04-16T21:26:38.485Z,58.93
2023-04-16T21:29:05.159Z,59.18
2023-04-16T21:31:31.850Z,59.08
2023-04-16T21:33:58.508Z,59.24
2023-04-16T21:36:27.487Z,59.31
2023-04-16T21:38:54.137Z,59.54
2023-04-16T21:41:21.166Z,59.19
2023-04-16T21:43:47.915Z,59.09
2023-04-16T21:46:14.714Z,58.92
2023-04-16T21:48:41.460Z,58.69
2023-04-16T21:51:08.542Z,58.79
2023-04-16T21:53:35.329Z,58.85
2023-04-16T21:56:02.251Z,58.89
2023-04-16T21:58:29.042Z,58.94
2023-04-16T22:00:55.965Z,58.83
2023-04-16T22:03:27.705Z,59.36
2023-04-16T22:06:01.759Z,59.49
2023-04-16T22:08:29.634Z,59.39
2023-04-16T22:11:01.411Z,59.26
2023-04-16T22:13:32.445Z,59.46
2023-04-16T22:16:02.641Z,59.27
2023-04-16T22:18:32.938Z,59.07
2023-04-16T22:20:59.944Z,59.10
2023-04-16T22:23:26.681Z,59.55
2023-04-16T22:25:54.957Z,59.19
2023-04-16T22:28:21.612Z,59.67
2023-04-16T22:30:48.380Z,59.40
2023-04-16T22:33:15.244Z,59.36
2023-04-16T22:35:42.129Z,59.53
2023-04-16T22:38:08.880Z,59.38
2023-04-16T22:40:35.663Z,59.60
2023-04-16T22:43:02.330Z,59.41
2023-04-16T22:45:29.396Z,59.49
2023-04-16T22:47:56.037Z,59.43
2023-04-16T22:50:23.295Z,59.40
2023-04-16T22:52:49.979Z,59.57
2023-04-16T22:55:16.874Z,58.94
2023-04-16T22:57:43.535Z,59.17
2023-04-16T23:00:17.708Z,59.11
2023-04-16T23:02:45.281Z,59.39
2023-04-16T23:05:12.281Z,59.60
2023-04-16T23:07:39.124Z,59.42
2023-04-16T23:10:08.353Z,59.37
2023-04-16T23:12:37.593Z,59.41
2023-04-16T23:15:06.756Z,59.42
2023-04-16T23:17:35.083Z,59.08
2023-04-16T23:20:02.952Z,59.54
2023-04-16T23:22:29.622Z,59.32
2023-04-16T23:24:56.357Z,59.46
2023-04-16T23:27:23.105Z,59.52
2023-04-16T23:29:49.782Z,59.47
2023-04-16T23:32:16.383Z,59.45
2023-04-16T23:34:42.881Z,59.41
2023-04-16T23:37:09.573Z,59.23
2023-04-16T23:39:36.216Z,59.15
2023-04-16T23:42:03.329Z,59.17
2023-04-16T23:44:29.991Z,59.22
2023-04-16T23:46:57.409Z,59.19
2023-04-16T23:49:24.670Z,59.07
2023-04-16T23:51:51.559Z,59.10
2023-04-16T23:54:18.305Z,59.00
2023-04-16T23:56:45.016Z,59.26
2023-04-16T23:59:11.812Z,59.13
